CheckWX is a tool to help pilots better visualize weather data.  It is not intended as a substitute for an official pre-flight weather briefing.

08:29:07 UTC

SBME TAF
Macaé Airport
Macaé, Brazil
TAF SBME 190300Z 1906/1918 03008KT 9999 FEW025 TN26/1909Z TX36/1914Z BECMG 1912/1914 19015KT RMK PGX

Mar-19@
06:00 UTC

Mar-19 @ 06:00 UTC

Mar-19@
12:00 UTC

Mar-19 @ 12:00 UTC

TAF SBME 190300Z 1906/1918 03008KT 9999 FEW025 TN26/1909Z TX36/1914Z
Wind
  • 030° at 8 KTS
Cloud Levels
  • Few at 2,500' AGL

Mar-19@
12:00 UTC

Mar-19 @ 12:00 UTC

Mar-19@
18:00 UTC

Mar-19 @ 18:00 UTC

BECMG 1912/1914 19015KT RMK PGX

Becoming

Becoming Conditions expected by Tue, Mar 19, 2019 @ 14:00 UTC

Wind
  • 190° at 15 KTS
Cloud Levels
  • Few at 2,500' AGL